Time;durP1;ratioP1;P1;durP2;ratioP2;P2;SDS_P1;SDS_P2;PMS_P1;PMS_P2;Temp;Humidity;BMP_temperature;BMP_pressure;BME280_temperature;BME280_humidity;BME280_pressure;Samples;Min_cycle;Max_cycle;Signal;HPM_P1;HPM_P2
2021/12/16 00:08:15;;;;;;;47.03;32.08;;;7.20;99.90;;;;;;4976630;28;20062;-86
2021/12/16 00:10:55;;;;;;;58.78;36.25;;;7.20;99.90;;;;;;4959817;28;20104;-86
2021/12/16 00:34:59;;;;;;;55.53;35.05;;;7.50;99.90;;;;;;4976260;28;20078;-85
2021/12/16 00:37:26;;;;;;;54.38;32.55;;;7.50;99.90;;;;;;4960039;28;20073;-85
2021/12/16 00:39:52;;;;;;;57.38;34.30;;;7.50;99.90;;;;;;4960699;28;20490;-85
2021/12/16 00:42:35;;;;;;;52.88;33.92;;;7.60;99.90;;;;;;4959737;28;20505;-85
2021/12/16 00:58:10;;;;;;;52.67;34.17;;;7.60;99.90;;;;;;4992593;28;20050;-85
2021/12/16 01:00:37;;;;;;;53.08;33.85;;;7.60;99.90;;;;;;4976266;28;20398;-86
2021/12/16 01:03:19;;;;;;;52.15;33.30;;;7.60;99.90;;;;;;4960098;28;20042;-86
2021/12/16 01:09:09;;;;;;;63.78;37.70;;;7.70;99.90;;;;;;4975727;28;20090;-86
2021/12/16 01:51:56;;;;;;;54.90;34.58;;;7.80;99.90;;;;;;4979145;28;20042;-86
2021/12/16 01:57:16;;;;;;;56.10;35.92;;;7.80;99.90;;;;;;4978350;28;20061;-86
2021/12/16 01:59:46;;;;;;;61.83;37.05;;;7.80;99.90;;;;;;4962922;28;20045;-86
2021/12/16 02:02:44;;;;;;;59.75;34.72;;;7.80;99.90;;;;;;4978756;28;20073;-86
2021/12/16 02:08:18;;;;;;;60.97;36.38;;;7.80;99.90;;;;;;4975502;28;20498;-86
2021/12/16 02:10:54;;;;;;;58.08;35.67;;;7.90;99.90;;;;;;4974661;28;20153;-86
2021/12/16 02:27:14;;;;;;;54.85;31.90;;;7.80;99.90;;;;;;4975847;28;20046;-86
2021/12/16 02:32:54;;;;;;;62.67;37.25;;;7.80;99.90;;;;;;4975181;28;19918;-86
2021/12/16 02:35:33;;;;;;;64.45;37.92;;;7.80;99.90;;;;;;4976956;28;20047;-86
2021/12/16 02:38:04;;;;;;;62.28;36.90;;;7.80;99.90;;;;;;4991326;28;20498;-86
2021/12/16 02:40:30;;;;;;;69.53;39.60;;;7.80;99.90;;;;;;4990343;28;20043;-86
2021/12/16 02:48:33;;;;;;;60.20;36.53;;;7.80;99.90;;;;;;4977425;28;20063;-86
2021/12/16 02:51:13;;;;;;;62.80;38.33;;;7.80;99.90;;;;;;4990949;28;20095;-86
2021/12/16 02:53:54;;;;;;;58.75;37.17;;;7.80;99.90;;;;;;4971371;28;20043;-86
2021/12/16 02:56:21;;;;;;;57.47;36.93;;;7.80;99.90;;;;;;4954981;29;20487;-86
2021/12/16 02:58:54;;;;;;;57.65;36.00;;;7.80;99.90;;;;;;4939348;29;20394;-86
2021/12/16 03:01:28;;;;;;;57.60;35.38;;;7.90;99.90;;;;;;4955335;29;20043;-86
2021/12/16 03:03:55;;;;;;;62.40;37.58;;;7.90;99.90;;;;;;4955531;29;20142;-86
2021/12/16 03:06:21;;;;;;;65.85;37.65;;;7.90;99.90;;;;;;4954956;29;20043;-86
2021/12/16 03:08:49;;;;;;;63.55;37.13;;;7.90;99.90;;;;;;4951859;29;20056;-86
2021/12/16 03:19:14;;;;;;;57.63;35.50;;;8.00;99.90;;;;;;4935895;29;20048;-86
2021/12/16 03:21:52;;;;;;;57.45;35.83;;;7.90;99.90;;;;;;4951620;29;20082;-85
2021/12/16 03:35:31;;;;;;;64.45;40.25;;;7.90;99.90;;;;;;4905131;29;20059;-85
2021/12/16 03:38:06;;;;;;;66.18;39.55;;;8.00;99.90;;;;;;4935722;29;20044;-85
2021/12/16 03:40:34;;;;;;;55.95;35.35;;;7.90;99.90;;;;;;4935005;29;20043;-85
2021/12/16 03:43:31;;;;;;;62.95;36.83;;;7.90;99.90;;;;;;4919918;29;20415;-85
2021/12/16 03:49:00;;;;;;;67.00;39.72;;;8.00;99.90;;;;;;4951621;29;20051;-85
2021/12/16 03:51:38;;;;;;;60.95;37.58;;;7.90;99.90;;;;;;4935071;29;20130;-86
2021/12/16 03:54:24;;;;;;;65.80;39.60;;;7.90;99.90;;;;;;4935327;29;20051;-86
2021/12/16 03:56:51;;;;;;;67.88;39.70;;;7.90;99.90;;;;;;4950075;29;20062;-86
2021/12/16 03:59:21;;;;;;;65.97;40.35;;;7.90;99.90;;;;;;4919330;29;20488;-86
2021/12/16 04:01:47;;;;;;;62.35;38.72;;;8.00;99.90;;;;;;4935202;29;20079;-86
2021/12/16 04:04:13;;;;;;;64.07;40.10;;;8.00;99.90;;;;;;4919321;29;20099;-86
2021/12/16 04:06:40;;;;;;;59.88;38.78;;;7.90;99.90;;;;;;4937069;28;20091;-86
2021/12/16 04:09:09;;;;;;;68.13;41.80;;;7.90;99.90;;;;;;4957618;28;20498;-86
2021/12/16 04:11:41;;;;;;;63.53;39.60;;;7.90;99.90;;;;;;4972560;28;20038;-86
2021/12/16 04:14:09;;;;;;;61.67;38.50;;;7.90;99.90;;;;;;4957321;28;20050;-86
2021/12/16 04:16:48;;;;;;;59.15;37.78;;;7.90;99.90;;;;;;4980504;28;20524;-86
2021/12/16 04:19:20;;;;;;;68.20;41.08;;;7.80;99.90;;;;;;4976605;28;20046;-86
2021/12/16 04:21:54;;;;;;;;;;;7.80;99.90;;;;;;4977061;28;20446;-86
2021/12/16 04:24:20;;;;;;;61.55;38.13;;;7.70;99.90;;;;;;4960325;28;20001;-86
2021/12/16 04:26:50;;;;;;;65.00;39.78;;;7.70;99.90;;;;;;4992023;28;20553;-86
2021/12/16 04:29:17;;;;;;;63.58;39.60;;;7.70;99.90;;;;;;4992741;28;20042;-86
2021/12/16 04:31:43;;;;;;;63.45;38.72;;;7.70;99.90;;;;;;4976649;28;20127;-86
2021/12/16 04:34:09;;;;;;;63.80;40.08;;;7.70;99.90;;;;;;4976458;28;20125;-86
2021/12/16 04:36:36;;;;;;;65.18;40.50;;;7.70;99.90;;;;;;4944206;28;20576;-86
2021/12/16 04:39:07;;;;;;;68.30;40.22;;;7.70;99.90;;;;;;4960082;28;20125;-86
2021/12/16 04:41:33;;;;;;;68.95;40.88;;;7.80;99.90;;;;;;4975623;28;20050;-86
2021/12/16 04:43:59;;;;;;;65.40;39.58;;;7.80;99.90;;;;;;4944299;28;20042;-86
2021/12/16 04:46:28;;;;;;;67.45;41.72;;;7.80;99.90;;;;;;4959973;28;20526;-86
2021/12/16 04:48:57;;;;;;;71.28;42.13;;;7.80;99.90;;;;;;4992497;28;20057;-86
2021/12/16 04:51:25;;;;;;;69.30;41.80;;;7.80;99.90;;;;;;4992122;28;20211;-86
2021/12/16 04:53:51;;;;;;;64.15;39.95;;;7.80;99.90;;;;;;4976139;28;20119;-86
2021/12/16 04:56:18;;;;;;;62.85;40.10;;;7.80;99.90;;;;;;4959414;28;20050;-86
2021/12/16 04:58:46;;;;;;;64.20;40.45;;;7.80;99.90;;;;;;4992204;28;20042;-86
2021/12/16 05:01:13;;;;;;;73.32;41.15;;;7.80;99.90;;;;;;4975989;28;20172;-86
2021/12/16 05:03:39;;;;;;;68.32;40.85;;;7.80;99.90;;;;;;4992338;28;20038;-86
2021/12/16 05:06:06;;;;;;;62.53;39.83;;;7.80;99.90;;;;;;4975897;28;20042;-86
2021/12/16 05:08:32;;;;;;;59.60;39.67;;;7.80;99.90;;;;;;4995142;28;20414;-86
2021/12/16 05:11:01;;;;;;;76.10;43.83;;;7.80;99.90;;;;;;4979353;28;20454;-86
2021/12/16 05:13:28;;;;;;;69.15;40.67;;;7.80;99.90;;;;;;4964237;28;20104;-86
2021/12/16 05:15:56;;;;;;;63.83;39.40;;;7.70;99.90;;;;;;4963695;28;20591;-86
2021/12/16 05:18:30;;;;;;;67.45;40.90;;;7.70;99.90;;;;;;4963643;28;20054;-86
2021/12/16 05:20:58;;;;;;;66.25;41.35;;;7.70;99.90;;;;;;4963653;28;20482;-86
2021/12/16 05:28:44;;;;;;;69.22;43.13;;;7.70;99.90;;;;;;4979892;28;20082;-86
2021/12/16 05:31:11;;;;;;;66.22;41.53;;;7.70;99.90;;;;;;4979431;28;20046;-86
2021/12/16 05:33:38;;;;;;;69.15;41.72;;;7.70;99.90;;;;;;4963569;28;20042;-86
2021/12/16 05:36:04;;;;;;;66.72;41.80;;;7.70;99.90;;;;;;4963444;28;20050;-86
2021/12/16 05:38:30;;;;;;;68.00;41.15;;;7.70;99.90;;;;;;4962950;28;20382;-86
2021/12/16 05:40:57;;;;;;;71.30;41.13;;;7.70;99.90;;;;;;4978525;28;20054;-86
2021/12/16 05:43:26;;;;;;;65.45;40.58;;;7.70;99.90;;;;;;4979486;28;20513;-85
2021/12/16 05:45:54;;;;;;;66.80;41.03;;;7.70;99.90;;;;;;4958834;28;20042;-85
2021/12/16 05:48:23;;;;;;;69.95;40.90;;;7.70;99.90;;;;;;4980357;28;20049;-83
2021/12/16 05:50:53;;;;;;;65.80;39.85;;;7.70;99.90;;;;;;4995401;28;20042;-83
2021/12/16 05:53:20;;;;;;;63.40;39.50;;;7.70;99.90;;;;;;4979180;28;20125;-83
2021/12/16 05:55:46;;;;;;;72.10;41.42;;;7.70;99.90;;;;;;4961765;28;20046;-83
2021/12/16 05:58:18;;;;;;;66.13;40.50;;;7.70;99.90;;;;;;4963012;28;20397;-83
2021/12/16 06:00:45;;;;;;;67.43;40.60;;;7.70;99.90;;;;;;4979165;28;20434;-83
2021/12/16 06:03:11;;;;;;;67.40;40.45;;;7.70;99.90;;;;;;4979016;28;20293;-83
2021/12/16 06:05:38;;;;;;;65.78;40.13;;;7.80;99.90;;;;;;4979323;28;20046;-83
2021/12/16 06:08:04;;;;;;;66.25;39.70;;;7.80;99.90;;;;;;4941128;28;20134;-83
2021/12/16 06:13:15;;;;;;;66.07;40.03;;;7.80;99.90;;;;;;4948113;28;21461;-83
2021/12/16 06:22:21;;;;;;;70.70;40.88;;;7.80;99.90;;;;;;4942837;29;20058;-83
2021/12/16 06:27:10;;;;;;;66.25;40.10;;;7.80;99.90;;;;;;4947675;28;20403;-85
2021/12/16 06:29:38;;;;;;;67.45;40.22;;;7.80;99.90;;;;;;4932246;29;20110;-85
2021/12/16 06:32:05;;;;;;;63.97;39.47;;;7.80;99.90;;;;;;4970541;28;20487;-83
2021/12/16 06:34:30;;;;;;;64.38;39.20;;;7.80;99.90;;;;;;4938754;29;20094;-83
2021/12/16 06:36:57;;;;;;;64.05;40.30;;;7.80;99.90;;;;;;4939749;29;20031;-83
2021/12/16 06:39:23;;;;;;;66.75;40.90;;;7.80;99.90;;;;;;4955599;29;20043;-83
2021/12/16 06:41:49;;;;;;;70.18;41.25;;;7.80;99.90;;;;;;4952750;28;20419;-82
2021/12/16 06:44:21;;;;;;;70.80;41.42;;;7.80;99.90;;;;;;4953897;29;20035;-83
2021/12/16 06:46:49;;;;;;;65.15;39.53;;;7.80;99.90;;;;;;4955470;28;20046;-83
2021/12/16 06:49:17;;;;;;;64.15;40.88;;;7.90;99.90;;;;;;4955418;29;20126;-83
2021/12/16 06:51:57;;;;;;;67.65;40.47;;;7.80;99.90;;;;;;4968358;28;20047;-83
2021/12/16 06:54:28;;;;;;;69.13;40.90;;;7.80;99.90;;;;;;4939958;29;20109;-83
2021/12/16 06:59:29;;;;;;;71.60;41.08;;;7.80;99.90;;;;;;4954054;29;20051;-84
2021/12/16 07:04:43;;;;;;;67.68;38.83;;;7.80;99.90;;;;;;4937482;29;20127;-83
2021/12/16 07:07:10;;;;;;;63.13;39.05;;;7.80;99.90;;;;;;4958477;28;20122;-83
2021/12/16 07:09:36;;;;;;;78.22;42.92;;;7.80;99.90;;;;;;4972900;28;20490;-83
2021/12/16 07:12:03;;;;;;;72.68;41.88;;;7.80;99.90;;;;;;4956101;28;20562;-83
2021/12/16 07:14:36;;;;;;;63.90;38.50;;;7.80;99.90;;;;;;4976053;28;20491;-83
2021/12/16 07:17:09;;;;;;;68.93;39.60;;;7.70;99.90;;;;;;4988724;28;20129;-83
2021/12/16 07:19:35;;;;;;;64.88;39.28;;;7.70;99.90;;;;;;4967781;28;20062;-83
2021/12/16 07:22:02;;;;;;;77.72;41.35;;;7.70;99.90;;;;;;4973759;28;20063;-83
2021/12/16 07:24:27;;;;;;;66.80;39.00;;;7.70;99.90;;;;;;4972365;28;20039;-83
2021/12/16 07:26:53;;;;;;;65.55;38.92;;;7.60;99.90;;;;;;4952932;28;20043;-83
2021/12/16 07:29:19;;;;;;;67.53;38.92;;;7.60;99.90;;;;;;4988875;28;20046;-83
2021/12/16 07:31:44;;;;;;;69.45;39.65;;;7.60;99.90;;;;;;4969613;28;20046;-84
2021/12/16 07:34:12;;;;;;;68.22;39.60;;;7.60;99.90;;;;;;4957596;28;20053;-84
2021/12/16 07:36:40;;;;;;;66.13;39.38;;;7.50;99.90;;;;;;4973488;28;20043;-83
2021/12/16 07:39:09;;;;;;;67.28;39.45;;;7.60;99.90;;;;;;4957323;28;20062;-83
2021/12/16 07:41:35;;;;;;;80.53;41.25;;;7.50;99.90;;;;;;4973273;28;20410;-83
2021/12/16 07:44:09;;;;;;;63.65;37.58;;;7.40;99.90;;;;;;4973568;28;20042;-83
2021/12/16 07:46:47;;;;;;;80.35;41.97;;;7.40;99.90;;;;;;4973546;28;20147;-83
2021/12/16 07:49:20;;;;;;;70.85;39.90;;;7.30;99.90;;;;;;4973648;28;20053;-83
2021/12/16 07:51:46;;;;;;;;;;;7.20;99.90;;;;;;4974021;28;20035;-83
2021/12/16 07:54:13;;;;;;;78.78;40.53;;;7.20;99.90;;;;;;4973672;28;20397;-83
2021/12/16 07:56:41;;;;;;;76.20;39.67;;;7.10;99.90;;;;;;4973263;28;20503;-83
2021/12/16 07:59:08;;;;;;;74.03;39.15;;;7.20;99.90;;;;;;4973538;28;20466;-82
2021/12/16 08:01:36;;;;;;;71.60;39.70;;;7.10;99.90;;;;;;4973358;28;20051;-82
2021/12/16 08:04:02;;;;;;;85.93;43.47;;;7.10;99.90;;;;;;4966008;28;20395;-82
2021/12/16 08:06:29;;;;;;;74.32;40.67;;;7.10;99.90;;;;;;4973182;28;20031;-82
2021/12/16 08:09:00;;;;;;;75.57;40.72;;;7.00;99.90;;;;;;4938172;29;20137;-82
2021/12/16 08:11:28;;;;;;;76.25;41.38;;;7.00;99.90;;;;;;4953669;29;20046;-84
2021/12/16 08:13:54;;;;;;;85.43;43.85;;;7.00;99.90;;;;;;4954281;29;20043;-84
2021/12/16 08:16:22;;;;;;;85.70;43.88;;;7.00;99.90;;;;;;4906244;29;20102;-84
2021/12/16 08:18:52;;;;;;;91.18;44.90;;;7.00;99.90;;;;;;4953258;29;20394;-86
2021/12/16 08:21:20;;;;;;;83.43;43.20;;;7.00;99.90;;;;;;4953175;29;20040;-84
2021/12/16 08:23:46;;;;;;;80.00;43.83;;;7.00;99.90;;;;;;4953912;28;20054;-84
2021/12/16 08:26:15;;;;;;;83.10;43.60;;;7.00;99.90;;;;;;4937384;29;20035;-84
2021/12/16 08:28:42;;;;;;;94.78;46.00;;;7.00;99.90;;;;;;4938176;29;20186;-84
2021/12/16 08:31:08;;;;;;;89.75;45.60;;;7.00;99.90;;;;;;4969586;28;20047;-84
2021/12/16 08:33:35;;;;;;;84.93;45.90;;;7.10;99.90;;;;;;4969943;28;20043;-84
2021/12/16 08:36:00;;;;;;;94.40;47.65;;;7.10;99.90;;;;;;4953797;28;20126;-84
2021/12/16 08:38:27;;;;;;;95.65;47.92;;;7.20;99.90;;;;;;4953841;29;20039;-84
2021/12/16 08:40:57;;;;;;;89.80;46.65;;;7.30;99.90;;;;;;4937223;28;20079;-83
2021/12/16 08:43:23;;;;;;;85.47;44.10;;;7.30;99.90;;;;;;4972800;28;20114;-83
2021/12/16 08:45:49;;;;;;;86.00;45.35;;;7.30;99.90;;;;;;4925701;29;20043;-83
2021/12/16 08:48:15;;;;;;;96.70;47.55;;;7.40;99.90;;;;;;4941624;29;20047;-83
2021/12/16 08:50:46;;;;;;;91.95;48.17;;;7.40;99.90;;;;;;4973508;28;20066;-83
2021/12/16 08:53:14;;;;;;;93.63;48.28;;;7.50;99.90;;;;;;4941686;29;20085;-84
2021/12/16 08:55:42;;;;;;;89.65;45.70;;;7.50;99.90;;;;;;4925601;29;20503;-84
2021/12/16 08:58:08;;;;;;;86.90;45.40;;;7.50;99.90;;;;;;4941427;29;20055;-84
2021/12/16 09:00:40;;;;;;;84.55;44.20;;;7.50;99.90;;;;;;4956012;29;20039;-84
2021/12/16 09:03:06;;;;;;;80.50;44.30;;;7.60;99.90;;;;;;4972758;28;20064;-84
2021/12/16 09:05:32;;;;;;;90.60;46.30;;;7.60;99.90;;;;;;4930006;29;20505;-84
2021/12/16 09:07:58;;;;;;;90.30;47.03;;;7.60;99.90;;;;;;4948780;29;20055;-84
2021/12/16 09:10:29;;;;;;;84.55;45.13;;;7.60;99.90;;;;;;4949465;29;20050;-84
2021/12/16 09:15:33;;;;;;;89.28;48.47;;;7.70;99.90;;;;;;4956714;29;20422;-84
2021/12/16 09:18:00;;;;;;;84.03;44.28;;;7.80;99.90;;;;;;4956406;29;20043;-84
2021/12/16 09:20:26;;;;;;;98.82;49.38;;;7.80;99.90;;;;;;4967067;28;20042;-84
2021/12/16 09:22:52;;;;;;;89.40;46.13;;;7.90;99.90;;;;;;4935207;29;20118;-84
2021/12/16 09:25:18;;;;;;;107.05;49.92;;;7.90;99.90;;;;;;4947860;29;20039;-84
2021/12/16 09:27:45;;;;;;;90.38;46.88;;;8.00;99.90;;;;;;4940291;29;20047;-84
2021/12/16 09:30:15;;;;;;;93.05;48.15;;;8.00;99.90;;;;;;4956204;29;20039;-84
2021/12/16 09:32:42;;;;;;;85.38;45.70;;;8.10;99.90;;;;;;4972516;28;20045;-84
2021/12/16 09:35:10;;;;;;;102.32;49.67;;;8.10;99.90;;;;;;4953308;29;20130;-84
2021/12/16 09:37:36;;;;;;;100.22;47.42;;;8.10;99.90;;;;;;4967142;28;20039;-83
2021/12/16 09:40:06;;;;;;;87.75;45.63;;;8.10;99.90;;;;;;4953591;28;20042;-83
2021/12/16 09:42:32;;;;;;;85.60;46.28;;;8.20;99.90;;;;;;4955840;29;20047;-83
2021/12/16 09:44:58;;;;;;;89.13;45.53;;;8.30;99.90;;;;;;4940411;29;20031;-83
2021/12/16 09:47:27;;;;;;;84.72;44.22;;;8.30;99.90;;;;;;4932499;29;20125;-83
2021/12/16 09:49:52;;;;;;;101.88;49.22;;;8.30;99.90;;;;;;4954738;29;20046;-83
2021/12/16 09:52:18;;;;;;;94.00;46.53;;;8.30;99.90;;;;;;4945867;28;20118;-83
2021/12/16 09:54:45;;;;;;;87.28;45.33;;;8.40;99.90;;;;;;4968225;28;20138;-83
2021/12/16 09:57:12;;;;;;;95.53;47.22;;;8.40;99.90;;;;;;4952546;29;20126;-84
2021/12/16 09:59:39;;;;;;;87.57;45.03;;;8.40;99.90;;;;;;4940293;29;20478;-84
2021/12/16 10:02:12;;;;;;;99.78;47.10;;;8.50;99.90;;;;;;4972139;28;20047;-81
2021/12/16 10:04:39;;;;;;;105.43;48.97;;;8.40;99.90;;;;;;4956266;29;20039;-80
2021/12/16 10:07:15;;;;;;;93.40;46.72;;;8.50;99.90;;;;;;4960417;28;20101;-80
2021/12/16 10:09:42;;;;;;;110.38;48.65;;;8.50;99.90;;;;;;4959674;28;20042;-85
2021/12/16 10:12:14;;;;;;;81.82;43.28;;;8.50;99.90;;;;;;4990873;28;20086;-84
2021/12/16 10:15:03;;;;;;;79.10;41.90;;;8.60;99.90;;;;;;4959697;28;20618;-83
2021/12/16 10:17:40;;;;;;;93.10;44.55;;;8.50;99.90;;;;;;4975407;28;20047;-83
2021/12/16 10:20:34;;;;;;;85.57;41.47;;;8.50;99.90;;;;;;4974802;28;20058;-82
2021/12/16 10:23:04;;;;;;;78.47;40.33;;;8.50;99.90;;;;;;4970935;28;20043;-82
2021/12/16 10:25:37;;;;;;;73.53;39.67;;;8.60;99.90;;;;;;4973764;28;20043;-82
2021/12/16 10:28:26;;;;;;;78.82;40.03;;;8.60;99.90;;;;;;4990939;28;20081;-82
2021/12/16 10:30:55;;;;;;;82.18;41.15;;;8.60;99.90;;;;;;4973435;28;20451;-83
2021/12/16 10:33:33;;;;;;;84.18;40.92;;;8.60;99.90;;;;;;4974425;28;20039;-83
2021/12/16 10:36:33;;;;;;;81.75;38.83;;;8.60;99.90;;;;;;4978774;28;20055;-83
2021/12/16 10:39:13;;;;;;;81.97;39.97;;;8.60;99.90;;;;;;4933920;29;20521;-83
2021/12/16 10:41:40;;;;;;;86.53;41.15;;;8.60;99.90;;;;;;4967363;28;20039;-83
2021/12/16 10:44:21;;;;;;;84.95;40.67;;;8.60;99.90;;;;;;4980431;28;20554;-83
2021/12/16 10:47:00;;;;;;;92.30;40.20;;;8.60;99.90;;;;;;4973959;28;20039;-85
2021/12/16 10:49:36;;;;;;;90.25;42.63;;;8.60;99.90;;;;;;4972523;28;20512;-85
2021/12/16 10:52:06;;;;;;;79.95;37.88;;;8.60;99.90;;;;;;4983797;28;20386;-83
2021/12/16 10:54:44;;;;;;;75.18;36.80;;;8.60;99.90;;;;;;4973954;28;20039;-83
2021/12/16 10:57:21;;;;;;;85.55;37.97;;;8.50;99.90;;;;;;4978926;28;20117;-83
2021/12/16 10:59:54;;;;;;;91.72;38.78;;;8.50;99.90;;;;;;4989485;28;20043;-83
2021/12/16 11:02:25;;;;;;;90.32;38.10;;;8.50;99.90;;;;;;4970171;28;20122;-83
2021/12/16 11:05:00;;;;;;;80.00;39.17;;;8.50;99.90;;;;;;4973046;28;20034;-83
2021/12/16 11:07:37;;;;;;;108.57;42.20;;;8.50;99.90;;;;;;4973923;28;20419;-84
2021/12/16 11:10:06;;;;;;;99.43;42.40;;;8.60;99.90;;;;;;4970814;28;20043;-84
2021/12/16 11:13:09;;;;;;;94.32;41.90;;;8.60;99.90;;;;;;4973001;28;20065;-84
2021/12/16 11:15:47;;;;;;;87.47;39.95;;;8.60;99.90;;;;;;4954295;28;20046;-83
2021/12/16 11:18:17;;;;;;;83.95;39.50;;;8.70;99.90;;;;;;4973249;28;20522;-84
2021/12/16 11:20:46;;;;;;;96.65;40.78;;;8.70;99.90;;;;;;4973082;28;20574;-84
2021/12/16 11:23:14;;;;;;;96.07;41.60;;;8.80;99.90;;;;;;4972966;28;20039;-84
2021/12/16 11:25:47;;;;;;;88.50;41.05;;;8.80;99.90;;;;;;4972142;28;20439;-83
2021/12/16 11:28:19;;;;;;;82.53;40.05;;;8.80;99.90;;;;;;4961439;28;20046;-83
2021/12/16 11:30:47;;;;;;;;;;;8.80;99.90;;;;;;4972922;28;20039;-83
2021/12/16 11:33:17;;;;;;;82.60;37.58;;;8.80;99.90;;;;;;4971762;28;19922;-83
2021/12/16 11:35:50;;;;;;;90.03;40.92;;;8.80;99.90;;;;;;4971978;28;20507;-83
2021/12/16 11:38:19;;;;;;;80.10;38.90;;;8.80;99.90;;;;;;4962677;28;20046;-83
2021/12/16 11:41:13;;;;;;;91.90;41.05;;;8.90;99.90;;;;;;4964561;28;20514;-83
2021/12/16 11:44:02;;;;;;;83.93;39.70;;;8.90;99.90;;;;;;4968650;28;20054;-83
2021/12/16 11:46:37;;;;;;;87.40;40.28;;;8.90;99.90;;;;;;4986313;28;20046;-83
2021/12/16 11:49:09;;;;;;;95.32;43.10;;;8.90;99.90;;;;;;4972442;28;20042;-83
2021/12/16 11:51:40;;;;;;;83.20;40.35;;;8.90;99.90;;;;;;4972199;28;20054;-83
2021/12/16 11:54:17;;;;;;;87.18;38.83;;;9.00;99.90;;;;;;4972169;28;20043;-84
2021/12/16 11:56:57;;;;;;;88.40;41.38;;;9.00;99.90;;;;;;4971241;28;20047;-84
2021/12/16 11:59:30;;;;;;;94.72;42.42;;;9.00;99.90;;;;;;4961841;28;20046;-84
2021/12/16 12:01:57;;;;;;;86.30;40.85;;;9.00;99.90;;;;;;4972184;28;20050;-84
2021/12/16 12:04:32;;;;;;;83.75;40.92;;;9.00;99.90;;;;;;4972435;28;20499;-84
2021/12/16 12:06:58;;;;;;;79.68;38.75;;;9.00;99.90;;;;;;4972972;28;20043;-84
2021/12/16 12:09:36;;;;;;;79.28;39.30;;;9.00;99.90;;;;;;4945596;28;20062;-84
2021/12/16 12:12:02;;;;;;;81.60;38.50;;;9.10;99.90;;;;;;4964453;28;20042;-84
2021/12/16 12:14:34;;;;;;;74.43;36.10;;;9.10;99.90;;;;;;4974850;28;20035;-84
2021/12/16 12:17:21;;;;;;;89.15;41.08;;;9.10;99.90;;;;;;4972444;28;20050;-84
2021/12/16 12:19:50;;;;;;;99.72;42.10;;;9.10;99.90;;;;;;4957864;28;20054;-84
2021/12/16 12:22:22;;;;;;;83.85;38.47;;;9.10;99.90;;;;;;4975123;28;20034;-84
2021/12/16 12:24:48;;;;;;;;;;;9.10;99.90;;;;;;4972203;28;20044;-83
2021/12/16 12:27:21;;;;;;;73.47;37.30;;;9.10;99.90;;;;;;4956903;28;20374;-83
2021/12/16 12:29:50;;;;;;;75.75;37.72;;;9.10;99.90;;;;;;4974669;28;20490;-84
2021/12/16 12:32:18;;;;;;;82.35;38.08;;;9.10;99.90;;;;;;4972765;28;20049;-84
2021/12/16 12:34:51;;;;;;;76.93;37.08;;;9.10;99.90;;;;;;4974622;28;20057;-84
2021/12/16 12:37:20;;;;;;;90.78;39.47;;;9.10;99.90;;;;;;4975041;28;20517;-84
2021/12/16 12:40:11;;;;;;;85.43;38.60;;;9.10;99.90;;;;;;4974503;28;20046;-83
2021/12/16 12:42:37;;;;;;;75.97;37.33;;;9.10;99.90;;;;;;4958948;28;20046;-83
2021/12/16 12:45:10;;;;;;;80.50;38.30;;;9.10;99.90;;;;;;4974355;28;20861;-83
2021/12/16 12:47:40;;;;;;;85.97;37.97;;;9.10;99.90;;;;;;4973513;28;20108;-83
2021/12/16 12:50:24;;;;;;;86.40;38.90;;;9.10;99.90;;;;;;4964965;28;20046;-84
2021/12/16 12:52:53;;;;;;;70.97;35.25;;;9.10;99.90;;;;;;4964080;28;20042;-84
2021/12/16 12:55:29;;;;;;;80.28;37.38;;;9.20;99.90;;;;;;4972240;28;20050;-84
2021/12/16 12:58:12;;;;;;;82.75;37.50;;;9.20;99.90;;;;;;4971168;28;20049;-84
2021/12/16 13:00:44;;;;;;;74.22;37.58;;;9.10;99.90;;;;;;4970794;28;20031;-84
2021/12/16 13:03:12;;;;;;;;;;;9.20;99.90;;;;;;4971570;28;20050;-84
2021/12/16 13:05:39;;;;;;;65.40;34.28;;;9.10;99.90;;;;;;4970591;28;19973;-84
2021/12/16 13:08:09;;;;;;;76.60;35.45;;;9.10;99.90;;;;;;4958320;28;20054;-84
2021/12/16 13:10:43;;;;;;;84.60;36.25;;;9.10;99.90;;;;;;4973975;28;20050;-84
2021/12/16 13:16:02;;;;;;;69.78;33.58;;;9.10;99.90;;;;;;4973788;28;20057;-84
2021/12/16 13:26:49;;;;;;;62.25;32.42;;;9.10;99.90;;;;;;4972451;28;20125;-83
2021/12/16 13:29:35;;;;;;;64.80;32.30;;;9.10;99.90;;;;;;4977210;28;20053;-83
2021/12/16 13:32:12;;;;;;;66.28;32.65;;;9.10;99.90;;;;;;4971870;28;20082;-84
2021/12/16 13:35:05;;;;;;;63.30;31.33;;;9.10;99.90;;;;;;4974071;28;20050;-84
2021/12/16 13:37:39;;;;;;;58.90;31.00;;;9.10;99.90;;;;;;4960660;28;20701;-84
2021/12/16 13:40:14;;;;;;;57.08;29.02;;;9.10;99.90;;;;;;4977436;28;20046;-84
2021/12/16 13:42:58;;;;;;;51.45;27.75;;;9.10;99.90;;;;;;4961671;28;20066;-83
2021/12/16 13:45:49;;;;;;;59.83;28.65;;;9.10;99.90;;;;;;4971067;28;20047;-83
2021/12/16 14:05:51;;;;;;;48.33;23.75;;;9.10;99.90;;;;;;4960977;28;20046;-83
2021/12/16 14:08:37;;;;;;;49.95;22.75;;;9.10;99.90;;;;;;4972025;28;20051;-83
2021/12/16 14:14:56;;;;;;;46.45;23.08;;;9.00;99.90;;;;;;4975323;28;20047;-83
2021/12/16 14:23:07;;;;;;;46.70;21.42;;;9.00;99.90;;;;;;4975055;28;20043;-84
2021/12/16 14:50:46;;;;;;;53.13;24.52;;;8.90;99.90;;;;;;4966339;28;20049;-84
2021/12/16 14:53:30;;;;;;;60.83;25.55;;;8.90;99.90;;;;;;4976104;28;20129;-84
2021/12/16 14:56:00;;;;;;;59.00;25.95;;;8.90;99.90;;;;;;4974204;28;20502;-84
2021/12/16 14:58:26;;;;;;;63.33;27.55;;;8.90;99.90;;;;;;4974265;28;20058;-84
2021/12/16 15:01:44;;;;;;;69.07;27.63;;;8.90;99.90;;;;;;4967776;28;20039;-84
2021/12/16 15:04:15;;;;;;;67.28;28.65;;;8.90;99.90;;;;;;4957568;28;20053;-84
2021/12/16 15:06:51;;;;;;;71.88;28.10;;;8.90;99.90;;;;;;4976007;28;20058;-84
2021/12/16 15:09:28;;;;;;;72.70;30.30;;;8.90;99.90;;;;;;4968168;28;20058;-84
2021/12/16 15:44:50;;;;;;;96.83;34.43;;;8.80;99.90;;;;;;4986287;28;20046;-83
2021/12/16 15:47:16;;;;;;;98.88;35.03;;;8.80;99.90;;;;;;4974837;28;20285;-83
2021/12/16 15:49:42;;;;;;;106.13;35.72;;;8.80;99.90;;;;;;4980087;28;20042;-83
2021/12/16 15:52:08;;;;;;;96.72;35.40;;;8.80;99.90;;;;;;4982579;28;20125;-83
2021/12/16 15:54:38;;;;;;;105.53;37.15;;;8.70;99.90;;;;;;4973481;28;20193;-84
2021/12/16 15:57:06;;;;;;;120.72;38.70;;;8.80;99.90;;;;;;4974325;28;20112;-84
2021/12/16 15:59:33;;;;;;;121.75;38.05;;;8.70;99.90;;;;;;4974513;28;20162;-85
2021/12/16 16:02:00;;;;;;;128.02;39.22;;;8.70;99.90;;;;;;4990069;28;20050;-83
2021/12/16 16:04:33;;;;;;;110.75;38.95;;;8.70;99.90;;;;;;4943536;28;20116;-83
2021/12/16 16:07:04;;;;;;;115.30;38.80;;;8.70;99.90;;;;;;4974193;28;20046;-83
2021/12/16 16:09:42;;;;;;;116.25;39.08;;;8.70;99.90;;;;;;4970830;28;20065;-84
2021/12/16 16:12:15;;;;;;;142.45;39.33;;;8.70;99.90;;;;;;4973026;28;20521;-83
2021/12/16 16:14:44;;;;;;;100.07;38.70;;;8.70;99.90;;;;;;4974932;28;20490;-83
2021/12/16 16:17:15;;;;;;;110.07;39.20;;;8.60;99.90;;;;;;4975689;28;20069;-85
2021/12/16 16:19:44;;;;;;;132.13;43.50;;;8.60;99.90;;;;;;4971031;28;20116;-85
2021/12/16 16:22:11;;;;;;;116.70;38.05;;;8.60;99.90;;;;;;4972792;28;20034;-84
2021/12/16 16:24:44;;;;;;;133.02;40.55;;;8.60;99.90;;;;;;4947996;28;20117;-84
2021/12/16 16:27:19;;;;;;;128.70;39.72;;;8.60;99.90;;;;;;4973908;28;20125;-85
2021/12/16 16:29:49;;;;;;;114.30;38.85;;;8.50;99.90;;;;;;4973336;28;20398;-85
2021/12/16 16:32:15;;;;;;;111.95;39.35;;;8.50;99.90;;;;;;4989030;28;20460;-84
2021/12/16 16:34:43;;;;;;;90.43;36.97;;;8.50;99.90;;;;;;4974106;28;20044;-84
2021/12/16 16:37:10;;;;;;;86.15;35.53;;;8.50;99.90;;;;;;4963537;28;20043;-84
2021/12/16 16:39:48;;;;;;;101.30;35.97;;;8.50;99.90;;;;;;4974107;28;20081;-84
2021/12/16 16:42:15;;;;;;;80.55;35.10;;;8.50;99.90;;;;;;4965085;28;20041;-84
2021/12/16 16:44:48;;;;;;;85.90;35.08;;;8.40;99.90;;;;;;4970763;28;20117;-84
2021/12/16 16:47:24;;;;;;;95.30;34.80;;;8.40;99.90;;;;;;4973476;28;20042;-83
2021/12/16 16:49:53;;;;;;;104.10;33.20;;;8.40;99.90;;;;;;4974262;28;20048;-84
2021/12/16 16:52:35;;;;;;;89.60;32.72;;;8.30;99.90;;;;;;4957217;28;20386;-84
2021/12/16 16:55:05;;;;;;;89.32;32.90;;;8.30;99.90;;;;;;4956827;28;20046;-84
2021/12/16 16:57:38;;;;;;;81.28;32.35;;;8.30;99.90;;;;;;4988204;28;20494;-83
2021/12/16 17:00:26;;;;;;;89.68;33.55;;;8.30;99.90;;;;;;4972056;28;20136;-85
2021/12/16 17:03:14;;;;;;;92.80;32.90;;;8.30;99.90;;;;;;4973009;28;20039;-85
2021/12/16 17:05:47;;;;;;;94.13;33.33;;;8.30;99.90;;;;;;4977150;28;20065;-85
2021/12/16 17:08:21;;;;;;;154.20;36.22;;;8.30;99.90;;;;;;4971118;28;20050;-85
2021/12/16 17:10:49;;;;;;;91.70;34.08;;;8.20;99.90;;;;;;4976826;28;20465;-83
2021/12/16 17:13:23;;;;;;;70.75;30.75;;;8.20;99.90;;;;;;4966369;28;20042;-84
2021/12/16 17:18:39;;;;;;;115.85;35.05;;;8.30;99.90;;;;;;4975102;28;20113;-85